createdAt,value
2019-01-17T00:00:33.359Z,94.30
2019-01-17T00:03:18.837Z,94.30
2019-01-17T00:06:06.307Z,94.40
2019-01-17T00:09:05.892Z,94.40
2019-01-17T00:12:04.419Z,94.50
2019-01-17T00:14:47.391Z,94.50
2019-01-17T00:17:45.711Z,94.50
2019-01-17T00:20:47.219Z,94.50
2019-01-17T00:23:31.228Z,94.50
2019-01-17T00:26:27.179Z,94.50
2019-01-17T00:29:07.517Z,94.50
2019-01-17T00:32:03.887Z,94.50
2019-01-17T00:34:52.212Z,94.40
2019-01-17T00:37:47.451Z,94.50
2019-01-17T00:40:37.223Z,94.40
2019-01-17T00:43:35.427Z,94.50
2019-01-17T00:46:31.189Z,94.50
2019-01-17T00:49:19.368Z,94.50
2019-01-17T00:52:09.484Z,94.50
2019-01-17T00:54:59.271Z,94.40
2019-01-17T00:57:41.311Z,94.60
2019-01-17T01:00:32.788Z,94.60
2019-01-17T01:03:20.155Z,94.60
2019-01-17T01:06:17.392Z,94.70
2019-01-17T01:09:13.854Z,94.70
2019-01-17T01:12:03.251Z,94.80
2019-01-17T01:14:49.424Z,95.00
2019-01-17T01:17:29.416Z,95.10
2019-01-17T01:20:25.165Z,95.10
2019-01-17T01:23:23.797Z,95.20
2019-01-17T01:26:22.469Z,95.20
2019-01-17T01:29:10.584Z,95.40
2019-01-17T01:32:00.007Z,95.50
2019-01-17T01:35:01.697Z,95.60
2019-01-17T01:38:09.503Z,95.80
2019-01-17T01:40:46.651Z,95.70
2019-01-17T01:43:29.249Z,96.00
2019-01-17T01:46:17.714Z,96.00
2019-01-17T01:49:08.614Z,96.20
2019-01-17T01:51:53.754Z,96.20
2019-01-17T01:54:24.132Z,96.30
2019-01-17T01:56:54.568Z,96.30
2019-01-17T01:59:24.943Z,96.20
2019-01-17T02:01:55.420Z,96.40
2019-01-17T02:04:25.892Z,96.30
2019-01-17T02:06:56.532Z,96.40
2019-01-17T02:09:27.044Z,96.40
2019-01-17T02:11:57.552Z,96.40
2019-01-17T02:14:28.003Z,96.40
2019-01-17T02:16:58.752Z,96.50
2019-01-17T02:19:29.167Z,96.50
2019-01-17T02:21:59.633Z,96.60
2019-01-17T02:24:30.080Z,96.60
2019-01-17T02:27:00.579Z,96.60
2019-01-17T02:29:31.479Z,96.80
2019-01-17T02:32:01.949Z,96.80
2019-01-17T02:34:32.289Z,96.80
2019-01-17T02:37:02.880Z,96.90
2019-01-17T02:39:33.329Z,96.90
2019-01-17T02:42:03.756Z,96.90
2019-01-17T02:44:34.213Z,96.90
2019-01-17T02:47:04.704Z,97.10
2019-01-17T02:49:35.055Z,97.20
2019-01-17T02:52:05.540Z,97.10
2019-01-17T02:54:36.071Z,97.20
2019-01-17T02:57:06.921Z,97.30
2019-01-17T02:59:37.515Z,97.40
2019-01-17T03:02:08.065Z,97.40
2019-01-17T03:04:38.498Z,97.80
2019-01-17T03:07:08.922Z,97.40
2019-01-17T03:09:39.570Z,97.40
2019-01-17T03:12:10.012Z,97.50
2019-01-17T03:14:40.663Z,97.60
2019-01-17T03:17:11.061Z,97.60
2019-01-17T03:19:41.494Z,97.70
2019-01-17T03:22:11.950Z,97.70
2019-01-17T03:24:43.091Z,97.70
2019-01-17T03:27:13.947Z,97.80
2019-01-17T03:29:44.446Z,98.20
2019-01-17T03:32:16.009Z,97.80
2019-01-17T03:34:47.663Z,97.80
2019-01-17T03:37:18.058Z,97.80
2019-01-17T03:39:48.615Z,97.90
2019-01-17T03:42:18.958Z,98.10
2019-01-17T03:44:49.397Z,98.10
2019-01-17T03:47:19.880Z,98.10
2019-01-17T03:49:50.353Z,98.10
2019-01-17T03:52:20.738Z,98.00
2019-01-17T03:54:53.896Z,98.10
2019-01-17T03:57:23.298Z,98.00
2019-01-17T03:59:53.816Z,98.10
2019-01-17T04:02:24.677Z,98.10
2019-01-17T04:04:55.054Z,98.10
2019-01-17T04:07:25.501Z,98.00
2019-01-17T04:09:55.876Z,98.10
2019-01-17T04:12:27.554Z,98.10
2019-01-17T04:14:58.005Z,98.10
2019-01-17T04:17:28.399Z,98.40
2019-01-17T04:19:59.218Z,98.00
2019-01-17T04:22:29.693Z,98.10
2019-01-17T04:25:00.245Z,98.10
2019-01-17T04:27:30.774Z,98.20
2019-01-17T04:30:01.226Z,98.20
2019-01-17T04:32:31.653Z,98.10
2019-01-17T04:35:02.317Z,98.20
2019-01-17T04:37:32.787Z,98.10
2019-01-17T04:40:03.473Z,98.20
2019-01-17T04:42:33.923Z,98.20
2019-01-17T04:45:04.882Z,98.30
2019-01-17T04:47:35.375Z,98.20
2019-01-17T04:50:07.365Z,98.20
2019-01-17T04:52:37.845Z,98.30
2019-01-17T04:55:09.575Z,98.30
2019-01-17T04:57:39.997Z,98.30
2019-01-17T05:00:13.537Z,98.30
2019-01-17T05:02:43.933Z,98.20
2019-01-17T05:05:14.785Z,98.20
2019-01-17T05:07:45.374Z,98.30
2019-01-17T05:10:16.205Z,98.20
2019-01-17T05:12:46.583Z,98.30
2019-01-17T05:15:17.057Z,98.20
2019-01-17T05:17:47.592Z,98.20
2019-01-17T05:20:18.196Z,98.10
2019-01-17T05:22:50.297Z,98.10
2019-01-17T05:25:21.058Z,98.20
2019-01-17T05:27:51.484Z,98.30
2019-01-17T05:30:21.967Z,98.30
2019-01-17T05:32:52.355Z,98.40
2019-01-17T05:35:23.050Z,98.30
2019-01-17T05:37:53.424Z,98.30
2019-01-17T05:40:23.817Z,98.20
2019-01-17T05:42:54.329Z,98.40
2019-01-17T05:45:24.752Z,98.20
2019-01-17T05:47:55.163Z,98.20
2019-01-17T05:50:25.612Z,98.30
2019-01-17T05:52:56.082Z,98.30
2019-01-17T05:55:26.552Z,98.40
2019-01-17T05:57:56.967Z,98.80
2019-01-17T06:00:27.400Z,98.30
2019-01-17T06:02:57.863Z,98.50
2019-01-17T06:05:28.266Z,98.50
2019-01-17T06:07:58.696Z,98.50
2019-01-17T06:10:28.612Z,98.50
2019-01-17T06:12:59.256Z,98.50
2019-01-17T06:15:29.952Z,98.90
2019-01-17T06:18:00.345Z,98.50
2019-01-17T06:20:30.717Z,98.50
2019-01-17T06:23:01.202Z,98.30
2019-01-17T06:25:31.702Z,98.50
2019-01-17T06:28:02.133Z,98.50
2019-01-17T06:30:32.544Z,98.40
2019-01-17T06:33:03.135Z,98.30
2019-01-17T06:35:33.485Z,98.70
2019-01-17T06:38:05.131Z,98.30
2019-01-17T06:40:35.598Z,98.20
2019-01-17T06:43:06.135Z,98.40
2019-01-17T06:45:36.495Z,98.30
2019-01-17T06:48:06.561Z,98.20
2019-01-17T06:50:37.038Z,98.30
2019-01-17T06:53:10.717Z,98.30
2019-01-17T06:55:41.469Z,98.20
2019-01-17T06:58:11.921Z,98.30
2019-01-17T07:00:42.367Z,98.30
2019-01-17T07:03:12.790Z,98.30
2019-01-17T07:06:29.120Z,98.30
2019-01-17T07:09:00.772Z,98.10
2019-01-17T07:11:31.154Z,98.20
2019-01-17T07:14:01.750Z,98.30
2019-01-17T07:16:32.206Z,98.30
2019-01-17T07:19:02.539Z,98.30
2019-01-17T07:21:32.952Z,98.40
2019-01-17T07:24:03.395Z,98.30
2019-01-17T07:26:33.882Z,98.40
2019-01-17T07:29:04.524Z,98.40
2019-01-17T07:31:35.033Z,98.40
2019-01-17T07:34:05.464Z,98.40
2019-01-17T07:36:37.863Z,98.40
2019-01-17T07:39:08.608Z,98.40
2019-01-17T07:41:39.434Z,98.40
2019-01-17T07:44:09.989Z,98.40
2019-01-17T07:46:40.556Z,98.60
2019-01-17T07:49:11.065Z,98.60
2019-01-17T07:51:41.936Z,98.60
2019-01-17T07:54:12.411Z,98.70
2019-01-17T07:56:44.088Z,98.70
2019-01-17T07:59:14.624Z,98.70
2019-01-17T08:01:45.135Z,98.60
2019-01-17T08:04:15.517Z,98.70
2019-01-17T08:06:45.841Z,98.60
2019-01-17T08:09:16.814Z,98.60
2019-01-17T08:11:47.469Z,98.30
2019-01-17T08:14:20.015Z,98.70
2019-01-17T08:16:53.976Z,98.70
2019-01-17T08:19:26.756Z,98.70
2019-01-17T08:21:58.552Z,98.70
2019-01-17T08:24:29.096Z,98.60
2019-01-17T08:26:59.671Z,98.70
2019-01-17T08:29:30.101Z,98.70
2019-01-17T08:32:00.506Z,98.60
2019-01-17T08:34:32.617Z,98.70
2019-01-17T08:37:03.119Z,98.80
2019-01-17T08:39:33.629Z,98.80
2019-01-17T08:42:04.223Z,98.80
2019-01-17T08:44:34.796Z,98.80
2019-01-17T08:47:05.361Z,98.90
2019-01-17T08:49:35.889Z,98.90
2019-01-17T08:52:06.345Z,98.80
2019-01-17T08:54:36.916Z,98.70
2019-01-17T08:57:06.905Z,98.90
2019-01-17T08:59:37.452Z,99.00
2019-01-17T09:02:07.855Z,99.00
2019-01-17T09:04:38.916Z,98.90
2019-01-17T09:07:09.426Z,98.70
2019-01-17T09:09:40.145Z,98.80
2019-01-17T09:12:10.553Z,98.70
2019-01-17T09:26:47.323Z,98.00
2019-01-17T09:29:18.143Z,97.00
2019-01-17T09:31:48.898Z,97.50
2019-01-17T09:34:19.567Z,97.80
2019-01-17T09:36:50.247Z,97.70
2019-01-17T09:39:20.841Z,97.70
2019-01-17T09:41:51.334Z,97.80
2019-01-17T09:44:21.965Z,97.90
2019-01-17T09:46:52.555Z,97.90
2019-01-17T09:49:23.273Z,98.00
2019-01-17T09:51:53.932Z,98.00
2019-01-17T09:54:24.754Z,97.90
2019-01-17T09:56:55.938Z,98.00
2019-01-17T09:59:26.496Z,98.20
2019-01-17T10:01:57.001Z,98.00
2019-01-17T10:04:27.531Z,97.90
2019-01-17T10:06:58.407Z,97.80
2019-01-17T10:09:29.043Z,97.70
2019-01-17T10:11:59.535Z,97.60
2019-01-17T10:14:30.157Z,97.60
2019-01-17T10:17:44.120Z,97.40
2019-01-17T10:20:42.214Z,97.30
2019-01-17T10:23:46.581Z,97.40
2019-01-17T10:26:54.162Z,97.40
2019-01-17T10:30:12.259Z,97.10
2019-01-17T10:33:10.203Z,97.00
2019-01-17T10:36:22.683Z,97.20
2019-01-17T10:39:43.500Z,96.80
2019-01-17T10:42:28.696Z,96.90
2019-01-17T10:45:55.289Z,96.80
2019-01-17T10:48:54.781Z,96.70
2019-01-17T10:52:24.917Z,96.20
2019-01-17T10:55:42.667Z,95.70
2019-01-17T10:59:03.510Z,96.10
2019-01-17T11:02:21.270Z,95.70
2019-01-17T11:05:19.680Z,94.80
2019-01-17T11:08:17.703Z,94.60
2019-01-17T11:11:25.312Z,94.90
2019-01-17T11:14:42.976Z,93.90
2019-01-17T11:17:37.278Z,94.20
2019-01-17T11:20:45.188Z,94.20
2019-01-17T11:23:40.231Z,94.30
2019-01-17T11:26:46.956Z,94.40
2019-01-17T11:29:30.460Z,94.20
2019-01-17T11:32:26.842Z,94.20
2019-01-17T11:35:35.651Z,94.30
2019-01-17T11:38:56.396Z,94.40
2019-01-17T11:42:08.766Z,94.60
2019-01-17T11:45:11.178Z,94.80
2019-01-17T11:48:27.021Z,94.50
2019-01-17T11:51:38.707Z,94.50
2019-01-17T11:54:43.443Z,94.70
2019-01-17T11:57:42.353Z,94.80
2019-01-17T12:00:57.419Z,94.70
2019-01-17T12:03:36.839Z,94.80
2019-01-17T12:06:08.059Z,95.00
2019-01-17T12:08:38.921Z,95.00
2019-01-17T12:11:09.364Z,95.10
2019-01-17T12:13:40.157Z,95.00
2019-01-17T12:16:10.606Z,95.10
2019-01-17T12:18:41.538Z,95.20
2019-01-17T12:21:11.913Z,95.20
2019-01-17T12:23:42.480Z,95.70
2019-01-17T12:26:12.986Z,95.30
2019-01-17T12:28:43.370Z,95.40
2019-01-17T12:31:14.018Z,95.50
2019-01-17T12:33:44.504Z,95.30
2019-01-17T12:36:16.127Z,95.30
2019-01-17T12:38:46.618Z,95.30
2019-01-17T12:41:17.150Z,95.40
2019-01-17T12:43:47.682Z,95.40
2019-01-17T12:46:18.313Z,95.50
2019-01-17T12:48:48.785Z,95.40
2019-01-17T12:51:20.334Z,95.50
2019-01-17T12:53:52.125Z,95.30
2019-01-17T12:56:22.595Z,95.30
2019-01-17T12:58:53.150Z,95.30
2019-01-17T13:01:23.614Z,95.10
2019-01-17T13:03:54.187Z,95.20
2019-01-17T13:06:24.662Z,95.10
2019-01-17T13:08:55.155Z,95.20
2019-01-17T13:11:26.789Z,95.00
2019-01-17T13:13:59.042Z,94.80
2019-01-17T13:16:29.430Z,95.20
2019-01-17T13:19:00.109Z,95.30
2019-01-17T13:21:30.530Z,95.50
2019-01-17T13:24:01.079Z,95.20
2019-01-17T13:26:31.645Z,95.40
2019-01-17T13:29:02.222Z,95.70
2019-01-17T13:31:32.690Z,96.10
2019-01-17T13:34:04.468Z,95.90
2019-01-17T13:36:40.266Z,96.10
2019-01-17T13:39:08.399Z,96.40
2019-01-17T13:41:38.887Z,96.40
2019-01-17T13:44:09.475Z,96.40
2019-01-17T13:46:40.090Z,96.60
2019-01-17T13:49:10.727Z,96.80
2019-01-17T13:51:41.635Z,96.70
2019-01-17T13:54:12.181Z,96.70
2019-01-17T13:56:43.341Z,96.90
2019-01-17T13:59:13.970Z,96.70
2019-01-17T14:01:45.433Z,96.60
2019-01-17T14:04:15.946Z,96.80
2019-01-17T14:06:46.516Z,97.00
2019-01-17T14:09:17.184Z,97.00
2019-01-17T14:11:47.741Z,96.80
2019-01-17T14:14:18.651Z,96.70
2019-01-17T14:16:49.209Z,96.90
2019-01-17T14:19:19.934Z,97.20
2019-01-17T14:21:50.517Z,96.80
2019-01-17T14:24:21.109Z,96.90
2019-01-17T14:26:51.981Z,97.00
2019-01-17T14:29:22.592Z,97.20
2019-01-17T14:31:53.017Z,97.00
2019-01-17T14:34:23.889Z,97.20
2019-01-17T14:36:54.261Z,97.30
2019-01-17T14:39:24.824Z,96.80
2019-01-17T14:41:55.352Z,96.50
2019-01-17T14:44:27.489Z,96.20
2019-01-17T14:46:59.865Z,96.60
2019-01-17T14:49:30.343Z,96.50
2019-01-17T14:52:00.915Z,96.50
2019-01-17T14:54:31.519Z,96.80
2019-01-17T14:57:02.050Z,96.90
2019-01-17T14:59:32.443Z,96.70
2019-01-17T15:02:03.149Z,96.60
2019-01-17T15:04:33.681Z,96.70
2019-01-17T15:07:04.213Z,96.80
2019-01-17T15:09:34.741Z,96.50
2019-01-17T15:12:05.370Z,96.00
2019-01-17T15:14:37.693Z,95.90
2019-01-17T15:17:08.445Z,96.00
2019-01-17T15:19:40.543Z,95.90
2019-01-17T15:22:10.972Z,95.70
2019-01-17T15:24:41.878Z,96.00
2019-01-17T15:27:12.501Z,95.50
2019-01-17T15:29:44.091Z,95.70
2019-01-17T15:32:14.673Z,95.70
2019-01-17T15:34:46.111Z,95.90
2019-01-17T15:37:17.279Z,96.10
2019-01-17T15:39:47.977Z,96.20
2019-01-17T15:42:18.770Z,96.10
2019-01-17T15:44:49.046Z,96.10
2019-01-17T15:47:19.577Z,96.20
2019-01-17T15:49:50.467Z,95.90
2019-01-17T15:52:22.205Z,95.50
2019-01-17T15:54:54.884Z,96.00
2019-01-17T15:57:25.798Z,96.00
2019-01-17T15:59:56.318Z,95.90
2019-01-17T16:02:27.672Z,96.10
2019-01-17T16:04:58.507Z,96.10
2019-01-17T16:07:30.711Z,96.40
2019-01-17T16:10:01.294Z,96.60
2019-01-17T16:12:33.426Z,96.60
2019-01-17T16:15:05.810Z,96.50
2019-01-17T16:17:36.384Z,96.50
2019-01-17T16:20:07.468Z,96.30
2019-01-17T16:22:37.940Z,96.30
2019-01-17T16:25:10.568Z,96.40
2019-01-17T16:27:41.941Z,96.30
2019-01-17T16:30:16.238Z,96.30
2019-01-17T16:32:46.738Z,96.20
2019-01-17T16:35:17.496Z,95.60
2019-01-17T16:37:48.758Z,95.90
2019-01-17T16:40:18.967Z,95.80
2019-01-17T16:42:49.620Z,95.90
2019-01-17T16:45:21.802Z,95.40
2019-01-17T16:47:52.313Z,95.40
2019-01-17T16:50:24.774Z,94.80
2019-01-17T16:52:55.947Z,94.90
2019-01-17T16:55:26.469Z,94.70
2019-01-17T16:57:56.959Z,94.90
2019-01-17T17:00:30.748Z,94.30
2019-01-17T17:03:02.071Z,93.60
2019-01-17T17:05:32.553Z,93.70
2019-01-17T17:08:03.518Z,93.60
2019-01-17T17:10:34.745Z,93.40
2019-01-17T17:13:04.742Z,93.40
2019-01-17T17:15:35.769Z,93.00
2019-01-17T17:18:09.496Z,93.10
2019-01-17T17:20:40.599Z,93.20
2019-01-17T17:23:11.472Z,93.40
2019-01-17T17:25:42.932Z,93.40
2019-01-17T17:28:14.299Z,93.60
2019-01-17T17:30:44.936Z,93.60
2019-01-17T17:33:15.484Z,93.50
2019-01-17T17:35:45.978Z,93.50
2019-01-17T17:38:17.496Z,93.80
2019-01-17T17:40:49.355Z,93.80
2019-01-17T17:43:19.507Z,94.10
2019-01-17T17:45:51.247Z,94.00
2019-01-17T17:48:21.869Z,93.90
2019-01-17T17:50:52.367Z,93.70
2019-01-17T17:53:22.950Z,93.60
2019-01-17T17:55:54.808Z,93.20
2019-01-17T17:58:25.711Z,92.50
2019-01-17T18:00:59.554Z,92.70
2019-01-17T18:03:30.129Z,92.30
2019-01-17T18:06:01.226Z,92.00
2019-01-17T18:08:31.683Z,91.90
2019-01-17T18:11:03.130Z,91.30
2019-01-17T18:13:34.176Z,91.30
2019-01-17T18:16:05.235Z,91.40
2019-01-17T18:18:35.769Z,91.50
2019-01-17T18:21:09.535Z,91.50
2019-01-17T18:23:40.858Z,91.50
2019-01-17T18:26:11.537Z,91.70
2019-01-17T18:28:42.056Z,91.40
2019-01-17T18:31:13.365Z,91.10
2019-01-17T18:33:44.670Z,91.40
2019-01-17T18:36:15.887Z,91.30
2019-01-17T18:38:46.546Z,91.30
2019-01-17T18:41:17.111Z,91.00
2019-01-17T18:43:47.955Z,90.50
2019-01-17T18:46:19.713Z,90.50
2019-01-17T18:48:50.433Z,90.40
2019-01-17T18:51:21.356Z,90.70
2019-01-17T18:53:52.247Z,90.50
2019-01-17T18:56:23.280Z,90.70
2019-01-17T18:58:54.202Z,91.00
2019-01-17T19:01:25.606Z,91.10
2019-01-17T19:03:56.515Z,91.30
2019-01-17T19:06:28.153Z,91.60
2019-01-17T19:08:58.831Z,91.90
2019-01-17T19:11:29.500Z,92.30
2019-01-17T19:14:00.025Z,93.20
2019-01-17T19:16:30.771Z,93.90
2019-01-17T19:19:01.451Z,94.50
2019-01-17T19:21:32.036Z,95.00
2019-01-17T19:24:02.474Z,95.30
2019-01-17T19:26:33.094Z,95.20
2019-01-17T19:29:03.726Z,95.60
2019-01-17T19:31:34.552Z,95.20
2019-01-17T19:34:05.065Z,94.90
2019-01-17T19:36:35.653Z,94.90
2019-01-17T19:39:11.100Z,94.80
2019-01-17T19:41:41.662Z,94.70
2019-01-17T19:44:12.056Z,94.50
2019-01-17T19:46:42.724Z,94.20
2019-01-17T19:49:13.290Z,94.10
2019-01-17T19:51:43.966Z,93.90
2019-01-17T19:54:16.309Z,93.70
2019-01-17T19:56:46.507Z,93.80
2019-01-17T19:59:17.199Z,93.80
2019-01-17T20:01:48.577Z,93.60
2019-01-17T20:04:19.068Z,93.00
2019-01-17T20:06:49.746Z,92.90
2019-01-17T20:09:20.538Z,92.80
2019-01-17T20:11:50.608Z,92.80
2019-01-17T20:14:21.450Z,92.80
2019-01-17T20:16:51.987Z,92.80
2019-01-17T20:19:22.479Z,92.50
2019-01-17T20:21:53.152Z,92.50
2019-01-17T20:24:23.619Z,92.40
2019-01-17T20:26:54.238Z,92.30
2019-01-17T20:29:24.737Z,92.40
2019-01-17T20:31:55.177Z,92.70
2019-01-17T20:34:28.091Z,92.30
2019-01-17T20:36:59.556Z,92.30
2019-01-17T20:39:30.556Z,92.20
2019-01-17T20:42:01.009Z,92.10
2019-01-17T20:44:31.787Z,92.20
2019-01-17T20:47:03.731Z,92.20
2019-01-17T20:49:34.474Z,92.20
2019-01-17T20:52:05.186Z,92.20
2019-01-17T20:54:36.442Z,92.30
2019-01-17T20:57:09.451Z,92.40
2019-01-17T20:59:40.029Z,92.40
2019-01-17T21:02:19.137Z,92.80
2019-01-17T21:04:54.119Z,92.80
2019-01-17T21:07:24.389Z,92.80
2019-01-17T21:09:54.850Z,92.90
2019-01-17T21:12:25.391Z,93.00
2019-01-17T21:14:55.869Z,93.10
2019-01-17T21:17:26.421Z,93.10
2019-01-17T21:19:56.899Z,93.20
2019-01-17T21:22:27.403Z,93.00
2019-01-17T21:24:57.859Z,92.80
2019-01-17T21:27:28.328Z,92.80
2019-01-17T21:29:58.721Z,92.50
2019-01-17T21:32:29.388Z,92.20
2019-01-17T21:34:59.722Z,92.00
2019-01-17T21:37:30.262Z,92.00
2019-01-17T21:40:00.751Z,91.70
2019-01-17T21:42:31.218Z,92.00
2019-01-17T21:45:01.587Z,92.00
2019-01-17T21:47:32.091Z,92.00
2019-01-17T21:50:04.031Z,91.90
2019-01-17T21:52:35.208Z,91.90
2019-01-17T21:55:06.669Z,91.80
2019-01-17T21:57:37.856Z,91.70
2019-01-17T22:00:13.214Z,91.80
2019-01-17T22:02:43.680Z,91.50
2019-01-17T22:05:14.042Z,91.50
2019-01-17T22:07:44.474Z,91.30
2019-01-17T22:10:15.481Z,91.40
2019-01-17T22:12:46.212Z,91.10
2019-01-17T22:15:18.750Z,91.20
2019-01-17T22:17:49.184Z,90.80
2019-01-17T22:20:19.836Z,90.60
2019-01-17T22:22:50.290Z,90.80
2019-01-17T22:25:20.810Z,91.00
2019-01-17T22:27:51.531Z,91.00
2019-01-17T22:30:23.919Z,90.90
2019-01-17T22:32:54.953Z,91.00
2019-01-17T22:35:25.292Z,91.10
2019-01-17T22:37:56.091Z,91.00
2019-01-17T22:40:26.451Z,91.10
2019-01-17T22:42:56.858Z,91.20
2019-01-17T22:45:29.462Z,91.30
2019-01-17T22:48:00.042Z,91.00
2019-01-17T22:50:30.418Z,91.10
2019-01-17T22:53:03.074Z,91.30
2019-01-17T22:55:33.486Z,91.30
2019-01-17T22:58:04.514Z,91.20
2019-01-17T23:01:08.298Z,91.40
2019-01-17T23:03:41.012Z,91.60
2019-01-17T23:06:11.440Z,91.70
2019-01-17T23:08:41.903Z,91.80
2019-01-17T23:11:12.302Z,92.10
2019-01-17T23:13:42.759Z,92.50
2019-01-17T23:16:13.066Z,92.60
2019-01-17T23:18:43.664Z,92.70
2019-01-17T23:21:14.016Z,92.70
2019-01-17T23:23:45.131Z,92.90
2019-01-17T23:26:15.558Z,93.30
2019-01-17T23:28:45.986Z,94.00
2019-01-17T23:31:16.436Z,94.20
2019-01-17T23:33:46.829Z,95.10
2019-01-17T23:36:17.280Z,94.70
2019-01-17T23:38:47.663Z,94.80
2019-01-17T23:41:17.988Z,94.90
2019-01-17T23:43:48.661Z,95.00
2019-01-17T23:46:19.052Z,95.10
2019-01-17T23:48:50.012Z,95.20
2019-01-17T23:51:20.356Z,95.40
2019-01-17T23:53:50.871Z,95.30
2019-01-17T23:56:21.555Z,95.10
2019-01-17T23:58:52.084Z,95.10
